Flight Track Log - Related Links

Times and Time Zones

All times are in EDT time to prevent confusion due to time zone crossing. See the N622MA flight status page for this flight to view local times or setup timezone preferences in your user account.

Time Position Orientation Groundspeed Altitude Reporting Facility
EDT Latitude Longitude Course Direction KTS MPH feet Rate Location/Type
Sat 11:03:52 AM 29.5331 -98.4636 73° East 113 130 1,200  Level Houston Center
Sat 11:05:13 AM 29.5458 -98.4167 71° East 135 155 2,200 803 Climbing Houston Center
Sat 11:06:14 AM 29.5583 -98.3744 71° East 123 142 3,100 842 Climbing Houston Center
Sat 11:07:07 AM 29.5683 -98.3417 57° Northeast 132 152 3,800 750 Climbing Houston Center
Sat 11:08:14 AM 29.5933 -98.2981 63° Northeast 136 157 4,600 803 Climbing Houston Center
Sat 11:09:14 AM 29.6097 -98.2608 64° Northeast 136 157 5,500 850 Climbing Houston Center
Sat 11:10:14 AM 29.6286 -98.2167 66° East 131 151 6,300 750 Climbing Houston Center
Sat 11:11:14 AM 29.6431 -98.1794 81° East 136 157 7,000 350 Climbing Houston Center
Sat 11:12:14 AM 29.6494 -98.1319 87° East 130 150 7,000  Level Houston Center
Sat 11:13:14 AM 29.6517 -98.0819 89° East 159 183 7,000  Level Houston Center
Sat 11:14:14 AM 29.6525 -98.0200 105° East 165 190 7,000  Level Houston Center
Sat 11:15:14 AM 29.6403 -97.9692 92° East 170 196 7,000  Level Houston Center
Sat 11:16:14 AM 29.6386 -97.9164 90° East 160 184 7,000  Level Houston Center
Sat 11:17:14 AM 29.6389 -97.8664 81° East 160 184 7,000 -50 Level Houston Center
Sat 11:18:14 AM 29.6453 -97.8189 87° East 160 184 6,900 -50 Descending Houston Center
Sat 11:19:14 AM 29.6475 -97.7667 92° East 160 184 6,900 50 Level Houston Center
Sat 11:20:14 AM 29.6458 -97.7139 87° East 160 184 7,000 50 Climbing Houston Center
Sat 11:21:14 AM 29.6481 -97.6639 90° East 160 184 7,000  Level Houston Center
Sat 11:22:14 AM 29.6481 -97.6114 90° East 160 184 7,000 Level Houston Center
Sat 11:33:16 AM 29.6483 -97.0069 92° East 179 206 7,100 Climbing Houston Center
Sat 11:34:17 AM 29.6464 -96.9472 87° East 180 207 7,100 -49 Level Houston Center
Sat 11:35:19 AM 29.6486 -96.8925 85° East 177 204 7,000  Descending Houston Center
Sat 11:36:20 AM 29.6528 -96.8378 90° East 171 197 7,100 49 Climbing Houston Center
Sat 11:37:21 AM 29.6528 -96.7803 87° East 171 197 7,100  Level Houston Center
Sat 11:38:16 AM 29.6547 -96.7303 90° East 169 194 7,100  Level Houston Center
Sat 11:39:24 AM 29.6547 -96.6706 87° East 167 192 7,100  Level Houston Center
Sat 11:40:25 AM 29.6569 -96.6158 90° East 168 193 7,100 -49 Level Houston Center
Sat 11:41:26 AM 29.6569 -96.5583 90° East 170 196 7,000 -49 Descending Houston Center
Sat 11:42:27 AM 29.6567 -96.5081 92° East 170 196 7,000 -344 Level Houston Center
Sat 11:43:28 AM 29.6544 -96.4483 88° East 176 203 6,300 -537 Descending Houston Center
Sat 11:44:30 AM 29.6567 -96.3864 77° East 187 215 5,900 -488 Descending Houston Center
Sat 11:45:31 AM 29.6692 -96.3247 77° East 196 226 5,300 -393 Descending Houston Center
Sat 11:46:32 AM 29.6819 -96.2608 76° East 195 224 5,100 -146 Descending Houston Center
Sat 11:47:34 AM 29.6942 -96.2039 73° East 180 207 5,000 -49 Descending Houston Center
Sat 11:48:35 AM 29.7086 -96.1497 83° East 178 205 5,000 52 Level Houston Center
Sat 11:49:30 AM 29.7144 -96.0972 86° East 171 197 5,100  Climbing Houston Center
Sat 11:50:38 AM 29.7183 -96.0400 82° East 174 200 5,000  Descending Houston Center
Sat 11:51:33 AM 29.7242 -95.9900 93° East 172 198 5,100 51 Climbing Houston Center
Sat 11:52:35 AM 29.7217 -95.9350 97° East 165 190 5,100  Level Houston Center
Sat 11:53:42 AM 29.7153 -95.8750 96° East 166 191 5,100 -47 Level Houston Center
Sat 11:54:44 AM 29.7106 -95.8197 95° East 169 194 5,000  Descending Houston Center
Sat 11:55:45 AM 29.7061 -95.7622 96° East 170 196 5,100 49 Climbing Houston Center
Sat 11:56:46 AM 29.7014 -95.7094 95° East 168 193 5,100 -246 Level Houston Center
Sat 11:57:47 AM 29.6969 -95.6542 96° East 174 200 4,600 -513 Descending Houston Center
Sat 11:58:43 AM 29.6922 -95.5992 71° East 183 211 4,100 -341 Descending Houston Center
Sat 11:59:50 AM 29.7106 -95.5378 59° Northeast 192 221 3,900 -422 Descending Houston Center
Sat 12:00:51 PM 29.7372 -95.4861 62° Northeast 193 222 3,200 -724 Descending Houston Center
Sat 12:01:46 PM 29.7594 -95.4389 118° Southeast 185 213 2,500 -563 Descending Houston Center
Sat 12:02:59 PM 29.7397 -95.3953 139° Southeast 121 139 2,000 -224 Descending Houston Center
Sat 12:04:00 PM 29.7153 -95.3706 133° Southeast 110 127 2,000 -362 Level Houston Center
Sat 12:04:55 PM 29.6931 -95.3433 131° Southeast 125 144 1,300 -724 Descending Houston Center
Sat 12:05:56 PM 29.6689 -95.3114 140° Southeast 137 158 600 -341 Descending Houston Center
Sat 12:06:58 PM 29.6403 -95.2842 198° South 117 135 600 585 Level Houston Center
Sat 12:07:59 PM 29.6172 -95.2928 231° Southwest 117 135 1,800 984 Climbing Houston Center
Sat 12:09:00 PM 29.5956 -95.3233 226° Southwest 112 129 2,600 634 Climbing Houston Center
Sat 12:10:02 PM 29.5719 -95.3511 234° Southwest 124 143 3,100 195 Climbing Houston Center
Sat 12:11:03 PM 29.5500 -95.3861 237° Southwest 147 169 3,000 94 Descending Houston Center
Sat 12:12:10 PM 29.5236 -95.4328 238° Southwest 146 168 3,300 466 Climbing Houston Center
Sat 12:12:59 PM 29.5083 -95.4608 236° Southwest 125 144 3,900 595 Climbing Houston Center
Sat 12:14:01 PM 29.4864 -95.4983 241° Southwest 132 152 4,400 512 Climbing Houston Center
Sat 12:15:08 PM 29.4708 -95.5311 231° Southwest 119 137 5,000 590 Climbing Houston Center
Sat 12:16:03 PM 29.4492 -95.5614 223° Southwest 120 138 5,600 517 Climbing Houston Center
Sat 12:17:04 PM 29.4231 -95.5889 223° Southwest 122 140 6,000 188 Climbing Houston Center
Sat 12:18:11 PM 29.3908 -95.6233 223° Southwest 150 173 6,000  Level Houston Center
Sat 12:19:12 PM 29.3608 -95.6558 223° Southwest 145 167 6,000  Level Houston Center
Sat 12:20:08 PM 29.3347 -95.6833 227° Southwest 146 168 6,000  Level Houston Center
Sat 12:21:17 PM 29.3025 -95.7225 227° Southwest 147 169 6,000  Level Houston Center
Sat 12:22:16 PM 29.2742 -95.7572 223° Southwest 146 168 6,000  Level Houston Center
Sat 12:23:01 PM 29.2525 -95.7800 223° Southwest 176 203 6,000  Level Houston Center
Sat 12:24:01 PM 29.2225 -95.8122 221° Southwest 165 190 6,000  Level Houston Center
Sat 12:25:02 PM 29.1922 -95.8419 227° Southwest 154 177 6,000  Level Houston Center
Sat 12:26:02 PM 29.1642 -95.8764 225° Southwest 149 171 6,000  Level Houston Center
Sat 12:27:02 PM 29.1358 -95.9086 223° Southwest 149 171 6,000  Level Houston Center
Sat 12:28:01 PM 29.1058 -95.9408 220° Southwest 144 166 6,000  Level Houston Center
Sat 12:29:02 PM 29.0756 -95.9703 227° Southwest 144 166 6,000 -50 Level Houston Center
Sat 12:30:02 PM 29.0472 -96.0050 225° Southwest 144 166 5,900 -50 Descending Houston Center
Sat 12:31:02 PM 29.0192 -96.0369 223° Southwest 144 166 5,900 50 Level Houston Center
Sat 12:32:02 PM 28.9889 -96.0689 225° Southwest 144 166 6,000  Climbing Houston Center
Sat 12:33:02 PM 28.9608 -96.1011 220° Southwest 144 166 5,900 -50 Descending Houston Center
Sat 12:34:02 PM 28.9306 -96.1306 212° Southwest 144 166 5,900  Level Houston Center
Sat 12:35:02 PM 28.8964 -96.1553 216° Southwest 144 166 5,900 50 Level Houston Center
Sat 12:36:02 PM 28.8642 -96.1822 221° Southwest 144 166 6,000  Climbing Houston Center
Sat 12:37:02 PM 28.8339 -96.2119 216° Southwest 151 174 5,900 -50 Descending Houston Center
Sat 12:38:01 PM 28.8017 -96.2389 214° Southwest 151 174 5,900  Level Houston Center
Sat 12:39:02 PM 28.7694 -96.2636 221° Southwest 151 174 5,900  Level Houston Center
Sat 12:40:02 PM 28.7394 -96.2931 218° Southwest 151 174 5,900  Level Houston Center
Sat 12:41:02 PM 28.7069 -96.3225 218° Southwest 151 174 5,900  Level Houston Center
Sat 12:42:02 PM 28.6769 -96.3494 218° Southwest 151 174 5,900 50 Level Houston Center
Sat 12:43:02 PM 28.6467 -96.3767 217° Southwest 151 174 6,000 50 Climbing Houston Center
Sat 12:44:02 PM 28.6122 -96.4058 216° Southwest 151 174 6,000  Level Houston Center
Sat 12:45:02 PM 28.5800 -96.4328 219° Southwest 156 180 6,000 -33 Level Houston Center
Sat 12:47:02 PM 28.5153 -96.4914 219° Southwest 161 185 5,900 -34 Descending Houston Center
Sat 12:48:01 PM 28.4831 -96.5206 215° Southwest 161 185 5,900  Level Houston Center
Sat 12:49:01 PM 28.4464 -96.5497 220° Southwest 161 185 5,900 50 Level Houston Center
Sat 12:50:02 PM 28.4161 -96.5789 219° Southwest 156 180 6,000  Climbing Houston Center
Sat 12:51:02 PM 28.3839 -96.6081 216° Southwest 156 180 5,900 -56 Descending Houston Center
Sat 12:51:50 PM 28.3536 -96.6328 223° Southwest 149 171 5,900 -308 Level Houston Center
Sat 12:52:20 PM 28.3386 -96.6486 216° Southwest 150 173 5,500 -667 Descending Houston Center
Sat 12:53:02 PM 28.3147 -96.6686 210° Southwest 161 185 5,100 -380 Descending Houston Center
Sat 12:53:39 PM 28.2914 -96.6842 216° Southwest 159 183 5,000 -62 Descending Houston Center
Sat 12:54:39 PM 28.2589 -96.7108 218° Southwest 144 166 5,000  Level Houston Center
Sat 12:55:34 PM 28.2308 -96.7356 222° Southwest 140 161 5,000  Level Houston Center
Sat 12:56:22 PM 28.2069 -96.7603 204° Southwest 139 160 5,000  Level Houston Center
Sat 12:57:17 PM 28.1772 -96.7753 252° West 136 157 5,000 -60 Level Houston Center
Sat 12:58:02 PM 28.1678 -96.8078 245° Southwest 137 158 4,900 -58 Descending Houston Center
Sat 12:59:01 PM 28.1494 -96.8517 234° Southwest 137 158 4,900  Level Houston Center
Sat 01:00:01 PM 28.1272 -96.8858 229° Southwest 142 163 4,900 63 Level Houston Center
Sat 01:00:37 PM 28.1097 -96.9086 239° Southwest 142 163 5,000 55 Climbing Houston Center
Sat 01:01:50 PM 28.0869 -96.9522 236° Southwest 143 165 5,000 -142 Level Houston Center
Sat 01:02:44 PM 28.0647 -96.9889 244° Southwest 144 166 4,700 -591 Descending Houston Center
Sat 01:04:02 PM 28.0394 -97.0464 232° Southwest 152 175 3,700 -716 Descending Houston Center
Sat 01:04:58 PM 28.0108 -97.0872 243° Southwest 167 192 3,100 -400 Descending Houston Center
Sat 01:06:02 PM 27.9925 -97.1286 232° Southwest 164 189 2,900 -45 Descending Houston Center
Sat 01:07:11 PM 27.9658 -97.1675 242° Southwest 129 148 3,000 44 Climbing Houston Center
Sat 01:08:18 PM 27.9475 -97.2064 237° Southwest 125 144 3,000  Level Houston Center
Sat 01:09:30 PM 27.9253 -97.2453 206° Southwest 124 143 3,000  Level Houston Center
Sat 01:10:19 PM 27.9058 -97.2558 116° Southeast 111 128 3,000 -273 Level Houston Center
Sat 01:11:20 PM 27.8925 -97.2247 116° Southeast 93 107 2,500 -492 Descending Houston Center

Login

Don't have an account? Register now (free) for customized features, flight alerts, and more!